Time;durP1;ratioP1;P1;durP2;ratioP2;P2;SDS_P1;SDS_P2;PMS_P1;PMS_P2;Temp;Humidity;BMP_temperature;BMP_pressure;BME280_temperature;BME280_humidity;BME280_pressure;Samples;Min_cycle;Max_cycle;Signal;HPM_P1;HPM_P2
2021/01/30 00:01:09;;;;;;;4.83;2.73;;;11.20;53.50;;;;;;5023599;28;20448;-82
2021/01/30 00:03:36;;;;;;;6.47;2.27;;;10.90;54.10;;;;;;5036112;28;20460;-82
2021/01/30 00:06:02;;;;;;;4.53;2.30;;;11.20;53.30;;;;;;5031354;28;20816;-82
2021/01/30 00:08:29;;;;;;;3.70;2.17;;;11.00;54.00;;;;;;5021013;28;20467;-82
2021/01/30 00:10:56;;;;;;;2.90;2.30;;;10.90;53.80;;;;;;5031736;28;20462;-82
2021/01/30 00:13:22;;;;;;;2.07;1.97;;;10.80;53.50;;;;;;5019090;28;20437;-82
2021/01/30 00:15:49;;;;;;;4.13;2.30;;;10.90;54.30;;;;;;5033471;28;20596;-82
2021/01/30 00:18:16;;;;;;;2.83;2.00;;;10.90;53.80;;;;;;5017971;28;20481;-82
2021/01/30 00:20:43;;;;;;;2.07;1.93;;;10.80;53.40;;;;;;5017664;28;20434;-81
2021/01/30 00:23:09;;;;;;;2.30;2.00;;;11.30;54.00;;;;;;5018164;28;20541;-82
2021/01/30 00:25:37;;;;;;;2.20;2.00;;;11.70;53.90;;;;;;5017919;28;20474;-83
2021/01/30 00:28:05;;;;;;;2.80;2.20;;;12.10;52.10;;;;;;5017641;28;20503;-83
2021/01/30 00:30:32;;;;;;;2.63;2.10;;;12.20;52.20;;;;;;5017210;28;20465;-82
2021/01/30 00:32:59;;;;;;;5.93;2.27;;;12.10;50.80;;;;;;5016260;28;20446;-82
2021/01/30 00:35:29;;;;;;;4.60;3.37;;;12.10;50.30;;;;;;5016548;28;20460;-82
2021/01/30 00:37:56;;;;;;;2.70;2.33;;;11.90;51.30;;;;;;5016961;28;20914;-82
2021/01/30 00:40:23;;;;;;;2.73;2.20;;;11.50;50.90;;;;;;5017090;28;20434;-81
2021/01/30 00:42:50;;;;;;;2.13;1.97;;;11.60;52.70;;;;;;5017001;28;20508;-81
2021/01/30 00:45:19;;;;;;;5.87;2.20;;;11.50;53.50;;;;;;5031974;28;20496;-81
2021/01/30 00:47:45;;;;;;;7.00;3.83;;;11.10;52.10;;;;;;5037327;28;20443;-81
2021/01/30 00:50:13;;;;;;;7.43;4.40;;;11.30;51.20;;;;;;5039090;28;20487;-82
2021/01/30 00:52:42;;;;;;;2.50;2.30;;;11.40;51.20;;;;;;5040902;28;20841;-81
2021/01/30 00:55:10;;;;;;;6.00;2.93;;;11.40;50.80;;;;;;5041822;28;20468;-81
2021/01/30 00:57:37;;;;;;;2.93;2.40;;;11.20;51.80;;;;;;5041438;28;20571;-82
2021/01/30 01:00:07;;;;;;;4.27;2.37;;;11.40;51.00;;;;;;5041452;28;20452;-81
2021/01/30 01:02:36;;;;;;;4.83;3.50;;;11.00;50.80;;;;;;5041047;28;20490;-81
2021/01/30 01:05:03;;;;;;;5.67;2.73;;;10.90;51.30;;;;;;5042585;28;20469;-81
2021/01/30 01:07:30;;;;;;;2.80;2.30;;;11.10;52.30;;;;;;5042255;28;20493;-82
2021/01/30 01:09:57;;;;;;;2.87;2.57;;;11.00;50.50;;;;;;5042671;28;20481;-82
2021/01/30 01:12:23;;;;;;;20.17;2.37;;;11.10;51.70;;;;;;5042627;28;20516;-82
2021/01/30 01:14:50;;;;;;;3.10;2.37;;;11.30;51.10;;;;;;5041944;28;20457;-82
2021/01/30 01:17:16;;;;;;;2.53;1.97;;;11.80;52.00;;;;;;5044829;28;20475;-82
2021/01/30 01:19:43;;;;;;;2.60;2.03;;;11.50;51.50;;;;;;5044546;28;20517;-81
2021/01/30 01:22:09;;;;;;;2.67;2.20;;;11.30;51.90;;;;;;5041938;28;20432;-82
2021/01/30 01:24:36;;;;;;;4.53;2.10;;;11.30;52.80;;;;;;5040075;28;20457;-82
2021/01/30 01:27:04;;;;;;;3.63;2.07;;;11.40;52.10;;;;;;5041558;28;20935;-82
2021/01/30 01:29:31;;;;;;;2.23;1.80;;;11.40;51.70;;;;;;5041181;28;20440;-82
2021/01/30 01:31:58;;;;;;;5.70;2.50;;;11.40;51.30;;;;;;5041288;28;20464;-82
2021/01/30 01:34:26;;;;;;;5.10;2.20;;;11.40;52.30;;;;;;5041977;28;20468;-82
2021/01/30 01:36:55;;;;;;;2.80;1.93;;;11.30;52.10;;;;;;5041984;28;20535;-82
2021/01/30 01:39:21;;;;;;;1.97;1.90;;;11.20;51.70;;;;;;5043348;28;20480;-82
2021/01/30 01:41:56;;;;;;;3.40;2.10;;;11.20;53.90;;;;;;5042203;28;20444;-83
2021/01/30 01:44:24;;;;;;;2.40;2.03;;;11.70;51.10;;;;;;5042020;28;20449;-82
2021/01/30 01:46:54;;;;;;;1.93;1.90;;;11.60;50.80;;;;;;5042914;28;20829;-82
2021/01/30 01:49:26;;;;;;;1.90;1.80;;;11.30;51.80;;;;;;5041296;28;20437;-83
2021/01/30 01:52:03;;;;;;;2.50;2.07;;;11.30;51.30;;;;;;5021368;28;20791;-84
2021/01/30 01:54:32;;;;;;;2.20;2.00;;;10.70;53.50;;;;;;5022797;28;20449;-82
2021/01/30 01:57:04;;;;;;;2.33;2.00;;;10.80;54.00;;;;;;5045155;28;20487;-83
2021/01/30 01:59:31;;;;;;;1.90;1.80;;;10.80;54.60;;;;;;5056952;28;20443;-84
2021/01/30 02:01:58;;;;;;;1.97;1.87;;;11.10;52.60;;;;;;5056481;28;20431;-84
2021/01/30 02:04:25;;;;;;;2.47;1.90;;;11.30;50.80;;;;;;5057477;28;20473;-84
2021/01/30 02:06:53;;;;;;;5.37;1.73;;;11.00;53.30;;;;;;5057652;28;20418;-83
2021/01/30 02:09:23;;;;;;;3.77;2.17;;;11.30;52.90;;;;;;5057527;28;20453;-83
2021/01/30 02:11:58;;;;;;;5.23;1.97;;;11.20;51.80;;;;;;5057017;28;20478;-83
2021/01/30 02:14:25;;;;;;;3.97;2.00;;;11.10;51.40;;;;;;5057788;28;20476;-83
2021/01/30 02:16:59;;;;;;;2.50;2.20;;;10.70;53.00;;;;;;5058838;28;20469;-83
2021/01/30 02:19:55;;;;;;;3.93;2.10;;;10.80;54.10;;;;;;5056378;28;20415;-83
2021/01/30 02:22:58;;;;;;;3.40;2.03;;;10.80;53.60;;;;;;5031813;28;20437;-83
2021/01/30 02:25:58;;;;;;;3.50;1.80;;;10.70;54.00;;;;;;5030033;28;20467;-82
2021/01/30 02:28:30;;;;;;;2.40;2.10;;;10.30;54.80;;;;;;5012434;28;20437;-82
2021/01/30 02:31:37;;;;;;;7.93;2.17;;;10.40;54.80;;;;;;5050683;28;20513;-82
2021/01/30 02:34:34;;;;;;;2.30;1.80;;;10.40;56.40;;;;;;5034401;28;20532;-83
2021/01/30 02:37:05;;;;;;;3.00;1.90;;;11.00;53.70;;;;;;5027569;28;20501;-82
2021/01/30 02:39:39;;;;;;;3.87;1.83;;;10.80;52.90;;;;;;5017991;28;20418;-81
2021/01/30 02:42:12;;;;;;;4.50;1.90;;;10.50;53.80;;;;;;5017021;28;20545;-82
2021/01/30 02:44:43;;;;;;;9.30;2.00;;;10.80;54.90;;;;;;5027512;28;20504;-82
2021/01/30 02:47:12;;;;;;;2.50;2.30;;;10.30;53.60;;;;;;5025968;28;20453;-82
2021/01/30 02:49:44;;;;;;;2.27;2.00;;;10.10;54.40;;;;;;5029101;28;20444;-82
2021/01/30 02:52:15;;;;;;;3.00;2.03;;;10.30;54.70;;;;;;5036401;28;20500;-83
2021/01/30 02:54:43;;;;;;;3.80;2.10;;;10.30;54.90;;;;;;5036328;28;20484;-82
2021/01/30 02:57:12;;;;;;;3.57;1.90;;;10.60;54.90;;;;;;5037062;28;20483;-82
2021/01/30 02:59:44;;;;;;;2.33;1.70;;;10.80;54.00;;;;;;5038303;28;20464;-82
2021/01/30 03:02:10;;;;;;;1.60;1.60;;;10.70;53.70;;;;;;5038151;28;20500;-81
2021/01/30 03:04:37;;;;;;;2.43;1.73;;;10.60;53.20;;;;;;5039176;28;20530;-82
2021/01/30 03:07:41;;;;;;;2.30;1.97;;;10.50;53.50;;;;;;5039277;28;20461;-82
2021/01/30 03:10:12;;;;;;;2.30;1.80;;;10.30;54.90;;;;;;5037787;28;20444;-82
2021/01/30 03:12:50;;;;;;;2.53;1.77;;;10.80;54.70;;;;;;5038201;28;20441;-82
2021/01/30 03:15:21;;;;;;;5.27;2.30;;;11.20;52.60;;;;;;5038207;28;20460;-82
2021/01/30 03:17:49;;;;;;;1.80;1.73;;;11.30;53.30;;;;;;5038294;28;20477;-82
2021/01/30 03:20:16;;;;;;;2.60;1.80;;;11.70;52.20;;;;;;5037822;28;20828;-82
2021/01/30 03:22:45;;;;;;;2.47;1.80;;;11.50;51.60;;;;;;5022557;28;20449;-82
2021/01/30 03:25:14;;;;;;;3.10;1.90;;;11.50;52.70;;;;;;5019551;28;20465;-82
2021/01/30 03:27:40;;;;;;;2.73;2.00;;;11.80;51.20;;;;;;5018676;28;21015;-82
2021/01/30 03:30:09;;;;;;;3.93;1.80;;;11.60;50.40;;;;;;5031640;28;20480;-82
2021/01/30 03:32:35;;;;;;;2.00;1.90;;;10.60;52.40;;;;;;5023366;28;20452;-82
2021/01/30 03:35:05;;;;;;;5.30;2.17;;;10.30;54.60;;;;;;5031891;28;20481;-82
2021/01/30 03:37:32;;;;;;;2.43;1.80;;;10.20;54.40;;;;;;5037734;28;20496;-81
2021/01/30 03:39:59;;;;;;;1.80;1.70;;;10.30;54.60;;;;;;5037358;28;20452;-82
2021/01/30 03:42:26;;;;;;;1.87;1.80;;;10.20;54.90;;;;;;5037797;28;20454;-82
2021/01/30 03:44:52;;;;;;;1.90;1.80;;;10.20;54.20;;;;;;5037992;28;20486;-83
2021/01/30 03:47:19;;;;;;;2.53;1.80;;;10.20;54.60;;;;;;5025744;28;20541;-82
2021/01/30 03:49:45;;;;;;;2.70;1.80;;;10.10;54.90;;;;;;5018369;28;20958;-82
2021/01/30 03:52:12;;;;;;;3.23;1.80;;;10.30;55.70;;;;;;5017408;28;20444;-82
2021/01/30 03:54:38;;;;;;;2.37;1.87;;;10.40;53.90;;;;;;5027368;28;20501;-82
2021/01/30 03:57:06;;;;;;;2.30;1.77;;;10.30;54.00;;;;;;5037489;28;20895;-82
2021/01/30 03:59:33;;;;;;;2.17;2.00;;;10.40;53.50;;;;;;5037573;28;20441;-82
2021/01/30 04:01:59;;;;;;;2.43;1.90;;;10.20;53.30;;;;;;5037734;28;20452;-82
2021/01/30 04:04:26;;;;;;;1.77;1.67;;;10.10;53.40;;;;;;5037765;28;20901;-82
2021/01/30 04:06:54;;;;;;;2.37;1.73;;;10.00;53.10;;;;;;5037833;28;20989;-82
2021/01/30 04:09:22;;;;;;;2.20;1.70;;;9.80;55.60;;;;;;5038366;28;20453;-81
2021/01/30 04:11:50;;;;;;;3.50;1.90;;;10.10;54.20;;;;;;5034565;28;20456;-81
2021/01/30 04:14:18;;;;;;;3.80;2.00;;;10.40;53.20;;;;;;5021794;28;20856;-82
2021/01/30 04:16:44;;;;;;;2.60;1.80;;;10.20;53.70;;;;;;5015601;28;20796;-84
2021/01/30 04:19:11;;;;;;;2.70;1.97;;;10.20;53.50;;;;;;5013924;28;20465;-83
2021/01/30 04:21:38;;;;;;;3.73;1.70;;;10.50;54.20;;;;;;5014736;28;20452;-83
2021/01/30 04:24:05;;;;;;;4.60;2.07;;;10.90;53.60;;;;;;5016030;28;20504;-82
2021/01/30 04:26:32;;;;;;;9.37;2.53;;;11.00;52.50;;;;;;5016407;28;20571;-82
2021/01/30 04:28:58;;;;;;;2.40;1.90;;;11.10;53.30;;;;;;5016466;28;20454;-83
2021/01/30 04:31:25;;;;;;;2.90;1.80;;;11.30;52.20;;;;;;5017436;28;20461;-82
2021/01/30 04:33:52;;;;;;;3.00;1.90;;;11.00;51.90;;;;;;5024401;28;20445;-82
2021/01/30 04:36:20;;;;;;;5.73;2.00;;;10.50;53.70;;;;;;5030674;28;20495;-82
2021/01/30 04:38:48;;;;;;;1.80;1.70;;;10.20;53.30;;;;;;5017159;28;20541;-82
2021/01/30 04:41:24;;;;;;;1.90;1.70;;;10.20;53.50;;;;;;5023038;28;20439;-82
2021/01/30 04:43:59;;;;;;;6.53;2.30;;;10.40;53.80;;;;;;5030108;28;20795;-82
2021/01/30 04:46:38;;;;;;;5.30;2.20;;;10.50;53.20;;;;;;5017961;28;20932;-82
2021/01/30 04:49:13;;;;;;;3.73;2.10;;;10.60;53.00;;;;;;5017475;28;20418;-82
2021/01/30 04:51:48;;;;;;;10.23;2.47;;;10.40;51.50;;;;;;5026829;28;20960;-81
2021/01/30 04:54:35;;;;;;;2.20;1.87;;;10.10;53.70;;;;;;5036704;28;20477;-81
2021/01/30 04:57:13;;;;;;;3.97;1.97;;;10.30;53.50;;;;;;5037355;28;20470;-81
2021/01/30 04:59:51;;;;;;;5.70;2.60;;;10.50;52.30;;;;;;5038384;28;20836;-81
2021/01/30 05:02:30;;;;;;;4.40;2.00;;;10.50;52.10;;;;;;5038860;28;20446;-81
2021/01/30 05:04:59;;;;;;;3.10;1.90;;;10.90;51.30;;;;;;5038167;28;20551;-82
2021/01/30 05:07:29;;;;;;;4.90;2.63;;;11.10;50.60;;;;;;5038568;28;20489;-81
2021/01/30 05:09:59;;;;;;;2.70;1.90;;;10.80;50.30;;;;;;5025593;28;20449;-82
2021/01/30 05:12:31;;;;;;;4.13;1.97;;;10.60;51.90;;;;;;5019192;28;20459;-82
2021/01/30 05:15:04;;;;;;;5.93;2.20;;;10.70;51.50;;;;;;5033021;28;20471;-82
2021/01/30 05:17:37;;;;;;;9.63;2.17;;;10.60;51.50;;;;;;5039722;28;20475;-81
2021/01/30 05:20:07;;;;;;;3.40;1.80;;;10.50;52.80;;;;;;5039374;28;20432;-82
2021/01/30 05:22:40;;;;;;;5.53;2.03;;;10.60;52.00;;;;;;5040172;28;20435;-82
2021/01/30 05:25:13;;;;;;;3.83;2.03;;;10.70;50.90;;;;;;5039056;28;20472;-82
2021/01/30 05:28:03;;;;;;;4.80;2.00;;;10.60;52.40;;;;;;5039980;28;20852;-81
2021/01/30 05:30:43;;;;;;;10.13;3.10;;;10.40;51.80;;;;;;5027136;28;20519;-82
2021/01/30 05:33:23;;;;;;;4.70;2.30;;;10.50;52.20;;;;;;5038899;28;20433;-82
2021/01/30 05:35:59;;;;;;;5.33;2.50;;;10.70;51.10;;;;;;5024142;28;20479;-81
2021/01/30 05:38:39;;;;;;;5.67;2.40;;;10.50;51.90;;;;;;5038059;28;20505;-81
2021/01/30 05:41:11;;;;;;;8.43;2.17;;;10.20;50.80;;;;;;5041129;28;20431;-82
2021/01/30 05:43:47;;;;;;;6.07;2.40;;;10.20;51.70;;;;;;5042204;28;20792;-81
2021/01/30 05:46:21;;;;;;;6.50;2.43;;;10.20;53.10;;;;;;5042005;28;20989;-81
2021/01/30 05:48:49;;;;;;;10.00;2.80;;;10.40;52.10;;;;;;5046042;28;20437;-81
2021/01/30 05:51:21;;;;;;;8.00;2.67;;;10.20;53.00;;;;;;5044000;28;20933;-80
2021/01/30 05:53:50;;;;;;;4.30;2.37;;;10.50;52.50;;;;;;5040989;28;20914;-81
2021/01/30 05:56:16;;;;;;;7.53;2.63;;;10.40;51.60;;;;;;5039882;28;20438;-81
2021/01/30 05:58:44;;;;;;;7.13;3.43;;;10.50;50.90;;;;;;5039379;28;20476;-81
2021/01/30 06:01:23;;;;;;;8.40;2.50;;;10.80;50.30;;;;;;5039537;28;20471;-81
2021/01/30 06:03:59;;;;;;;6.90;2.60;;;10.80;51.00;;;;;;5039808;28;20443;-81
2021/01/30 06:06:29;;;;;;;6.40;2.53;;;10.60;50.40;;;;;;5040034;28;20463;-82
2021/01/30 06:08:59;;;;;;;7.97;3.40;;;10.60;50.10;;;;;;5039311;28;20544;-81
2021/01/30 06:11:25;;;;;;;4.93;2.60;;;10.50;50.00;;;;;;5026853;28;20455;-82
2021/01/30 06:13:57;;;;;;;8.17;2.37;;;10.30;52.40;;;;;;5019954;28;20457;-82
2021/01/30 06:16:45;;;;;;;12.43;2.67;;;10.30;52.20;;;;;;5020312;28;20439;-81
2021/01/30 06:19:16;;;;;;;6.60;2.57;;;10.60;51.90;;;;;;5019850;28;20433;-81
2021/01/30 06:21:43;;;;;;;10.30;3.07;;;10.50;51.40;;;;;;5019694;28;20435;-82
2021/01/30 06:24:12;;;;;;;9.30;2.87;;;10.50;50.00;;;;;;5019574;28;20501;-82
2021/01/30 06:26:43;;;;;;;6.63;2.50;;;10.20;50.10;;;;;;5032191;28;20937;-81
2021/01/30 06:29:28;;;;;;;5.93;2.60;;;10.30;51.40;;;;;;5040129;28;20901;-82
2021/01/30 06:31:55;;;;;;;16.97;2.90;;;10.30;51.10;;;;;;5027805;28;20436;-81
2021/01/30 06:34:30;;;;;;;7.03;2.70;;;10.50;52.10;;;;;;5022573;28;20900;-82
2021/01/30 06:36:58;;;;;;;5.83;2.40;;;10.60;50.10;;;;;;5024389;28;20449;-82
2021/01/30 06:39:28;;;;;;;5.40;2.33;;;10.20;51.10;;;;;;5037301;28;20446;-81
2021/01/30 06:42:00;;;;;;;13.07;2.63;;;10.10;50.90;;;;;;5044836;28;20457;-81
2021/01/30 06:44:30;;;;;;;15.60;3.30;;;10.20;53.30;;;;;;5042718;28;20844;-81
2021/01/30 06:47:03;;;;;;;7.50;2.43;;;10.20;50.60;;;;;;5041831;28;20450;-82
2021/01/30 06:49:36;;;;;;;11.33;3.73;;;10.30;51.70;;;;;;5041897;28;20957;-82
2021/01/30 06:52:12;;;;;;;8.67;2.40;;;10.40;52.70;;;;;;5041966;28;20429;-81
2021/01/30 06:54:39;;;;;;;7.33;3.80;;;10.70;50.20;;;;;;5042969;28;20463;-81
2021/01/30 06:57:11;;;;;;;9.77;3.10;;;10.70;50.20;;;;;;5041593;28;20570;-82
2021/01/30 06:59:49;;;;;;;9.10;2.60;;;11.10;48.90;;;;;;5038818;28;20429;-87
2021/01/30 07:02:21;;;;;;;7.40;2.80;;;11.10;51.00;;;;;;5045054;28;20425;-86
2021/01/30 07:05:15;;;;;;;8.03;2.83;;;10.70;50.30;;;;;;5043803;28;20472;-86
2021/01/30 07:07:54;;;;;;;6.80;2.93;;;10.60;50.90;;;;;;5047757;28;20441;-87
2021/01/30 07:10:29;;;;;;;7.73;2.83;;;10.50;50.90;;;;;;5038762;28;20432;-87
2021/01/30 07:13:14;;;;;;;12.07;3.60;;;10.60;52.10;;;;;;5037043;28;20429;-87
2021/01/30 07:15:44;;;;;;;9.13;3.07;;;10.30;51.10;;;;;;5036812;28;20453;-87
2021/01/30 07:18:27;;;;;;;17.00;5.57;;;10.10;50.70;;;;;;5036235;28;20838;-86
2021/01/30 07:21:20;;;;;;;11.10;3.40;;;10.10;52.80;;;;;;5036011;28;20792;-86
2021/01/30 07:23:58;;;;;;;14.17;4.43;;;10.10;50.70;;;;;;5032703;28;20465;-86
2021/01/30 07:26:33;;;;;;;8.43;2.80;;;10.20;50.50;;;;;;5036532;28;20438;-87
2021/01/30 07:29:02;;;;;;;14.50;3.57;;;10.20;51.90;;;;;;5036961;28;20417;-87
2021/01/30 07:31:31;;;;;;;6.87;3.03;;;10.20;50.90;;;;;;5035865;28;20437;-86
2021/01/30 07:34:04;;;;;;;13.90;3.53;;;10.00;52.10;;;;;;5019578;28;20462;-86
2021/01/30 07:36:36;;;;;;;11.23;3.00;;;10.20;51.30;;;;;;5014560;28;20434;-87
2021/01/30 07:39:13;;;;;;;12.50;3.40;;;10.10;52.10;;;;;;5013877;28;20477;-86
2021/01/30 07:41:49;;;;;;;8.70;2.70;;;10.20;51.50;;;;;;5014230;28;20446;-86
2021/01/30 07:44:20;;;;;;;15.80;3.03;;;10.30;51.20;;;;;;5014729;28;20477;-86
2021/01/30 07:46:53;;;;;;;14.20;3.80;;;10.60;50.10;;;;;;5015099;28;20442;-86
2021/01/30 07:49:23;;;;;;;9.43;2.77;;;10.90;50.30;;;;;;5031853;28;21063;-86
2021/01/30 07:52:00;;;;;;;21.37;4.00;;;11.00;50.50;;;;;;5036345;28;20463;-88
2021/01/30 07:54:26;;;;;;;21.13;4.47;;;11.10;51.40;;;;;;5033372;28;20488;-88
2021/01/30 07:57:11;;;;;;;16.13;3.80;;;11.50;47.90;;;;;;5035328;28;20452;-87
2021/01/30 07:59:47;;;;;;;12.63;3.00;;;11.40;48.40;;;;;;5034464;28;20453;-87
2021/01/30 08:02:40;;;;;;;8.50;2.97;;;11.50;48.80;;;;;;5034220;28;20452;-87
2021/01/30 08:05:31;;;;;;;14.33;4.37;;;11.30;49.40;;;;;;5035649;28;20467;-87
2021/01/30 08:08:11;;;;;;;11.03;3.27;;;11.30;49.30;;;;;;5037052;28;20458;-86
2021/01/30 08:10:46;;;;;;;6.80;2.90;;;11.40;48.90;;;;;;5016318;28;20426;-86
2021/01/30 08:13:23;;;;;;;25.80;4.37;;;11.20;47.80;;;;;;5036017;28;20802;-85
2021/01/30 08:16:00;;;;;;;11.47;3.60;;;11.10;47.90;;;;;;5035523;28;20467;-86
2021/01/30 08:18:35;;;;;;;19.53;3.90;;;11.30;48.80;;;;;;5016088;28;20464;-86
2021/01/30 08:21:17;;;;;;;12.37;3.60;;;10.90;49.20;;;;;;5017835;28;20891;-87
2021/01/30 08:23:56;;;;;;;25.00;3.67;;;10.90;48.70;;;;;;5019959;28;20441;-86
2021/01/30 08:26:28;;;;;;;8.53;3.03;;;11.20;49.00;;;;;;5038142;28;20799;-86
2021/01/30 08:29:17;;;;;;;10.20;3.67;;;11.70;48.40;;;;;;5037563;28;20509;-87
2021/01/30 08:31:46;;;;;;;8.40;3.40;;;12.00;49.00;;;;;;5030607;28;20454;-86
2021/01/30 08:34:27;;;;;;;15.03;3.33;;;12.30;47.80;;;;;;5017069;28;20477;-86
2021/01/30 08:36:55;;;;;;;12.80;3.73;;;12.50;45.90;;;;;;5017713;28;20473;-86
2021/01/30 08:39:26;;;;;;;21.37;3.43;;;12.20;46.00;;;;;;5022710;28;20456;-86
2021/01/30 08:41:58;;;;;;;14.90;4.47;;;12.40;47.20;;;;;;5038103;28;20446;-86
2021/01/30 08:44:43;;;;;;;10.80;3.80;;;12.10;47.80;;;;;;5036810;28;20988;-87
2021/01/30 08:47:20;;;;;;;12.00;3.30;;;12.00;46.60;;;;;;5036455;28;20436;-86
2021/01/30 08:50:02;;;;;;;8.17;3.43;;;12.10;48.80;;;;;;5036663;28;20803;-86
2021/01/30 08:52:47;;;;;;;13.90;3.83;;;12.20;46.30;;;;;;5037513;28;20538;-87
2021/01/30 08:55:38;;;;;;;14.20;4.30;;;12.50;48.00;;;;;;5036819;28;20488;-85
2021/01/30 08:58:05;;;;;;;11.97;3.87;;;12.80;44.80;;;;;;5036323;28;20826;-86
2021/01/30 09:00:59;;;;;;;15.63;3.90;;;13.20;46.70;;;;;;5036938;28;20473;-87
2021/01/30 09:03:47;;;;;;;16.53;3.93;;;13.00;45.30;;;;;;5035842;28;20441;-85
2021/01/30 09:06:49;;;;;;;10.50;3.30;;;13.00;45.70;;;;;;5028047;28;20917;-86
2021/01/30 09:09:17;;;;;;;10.50;3.37;;;12.90;46.40;;;;;;5025086;28;20488;-85
2021/01/30 09:11:45;;;;;;;12.90;4.33;;;13.00;44.00;;;;;;5034919;28;20611;-86
2021/01/30 09:14:39;;;;;;;13.40;5.10;;;13.10;43.20;;;;;;5037427;28;20512;-85
2021/01/30 09:17:41;;;;;;;25.07;5.47;;;13.30;44.60;;;;;;5037383;28;20433;-85
2021/01/30 09:20:24;;;;;;;13.57;4.10;;;13.10;43.00;;;;;;5038184;28;20531;-86
2021/01/30 09:23:05;;;;;;;14.40;5.83;;;13.30;44.40;;;;;;5036533;28;20516;-85
2021/01/30 09:25:44;;;;;;;18.10;4.03;;;13.40;44.80;;;;;;5037603;28;20472;-86
2021/01/30 09:28:19;;;;;;;20.53;4.83;;;13.20;44.20;;;;;;5037721;28;20428;-85
2021/01/30 09:30:52;;;;;;;11.47;3.23;;;13.10;43.10;;;;;;5033607;28;20902;-87
2021/01/30 09:33:24;;;;;;;11.20;3.90;;;12.90;45.20;;;;;;5025378;28;20454;-86
2021/01/30 09:36:06;;;;;;;10.67;3.80;;;13.10;44.30;;;;;;5038036;28;20476;-86
2021/01/30 09:38:37;;;;;;;9.13;3.40;;;13.40;45.40;;;;;;5035748;28;20615;-85
2021/01/30 09:41:08;;;;;;;10.40;4.33;;;13.60;45.20;;;;;;5035436;28;20822;-86
2021/01/30 09:43:36;;;;;;;8.30;3.20;;;13.60;44.10;;;;;;5036994;28;20490;-86
2021/01/30 09:46:06;;;;;;;14.33;3.60;;;13.50;44.10;;;;;;5026728;28;20547;-86
2021/01/30 09:48:35;;;;;;;13.67;3.60;;;13.70;45.10;;;;;;5016485;28;20430;-85
2021/01/30 09:51:03;;;;;;;18.73;4.20;;;13.80;43.90;;;;;;5026011;28;20970;-85
2021/01/30 09:53:32;;;;;;;18.93;3.70;;;13.50;42.90;;;;;;5037243;28;20445;-87
2021/01/30 09:56:10;;;;;;;16.17;3.90;;;12.90;45.20;;;;;;5036922;28;20816;-85
2021/01/30 09:58:39;;;;;;;11.30;3.53;;;13.00;45.20;;;;;;5040657;28;20496;-85
2021/01/30 10:01:12;;;;;;;20.17;4.80;;;12.90;47.00;;;;;;5041015;28;20437;-86
2021/01/30 10:03:41;;;;;;;14.80;3.97;;;12.80;46.20;;;;;;5035157;28;20523;-86
2021/01/30 10:06:16;;;;;;;8.90;3.30;;;12.80;46.10;;;;;;5035753;28;20492;-86
2021/01/30 10:08:43;;;;;;;20.13;4.63;;;12.90;47.70;;;;;;5023217;28;20442;-86
2021/01/30 10:11:15;;;;;;;6.77;3.30;;;13.60;45.20;;;;;;5029322;28;20449;-87
2021/01/30 10:13:45;;;;;;;14.77;4.77;;;13.60;44.60;;;;;;5034986;28;20472;-87
2021/01/30 10:16:15;;;;;;;16.13;6.03;;;13.80;43.60;;;;;;5035350;28;20448;-86
2021/01/30 10:18:46;;;;;;;17.40;4.40;;;14.10;45.60;;;;;;5035351;28;20982;-87
2021/01/30 10:21:14;;;;;;;17.47;4.00;;;14.10;42.30;;;;;;5034919;28;20453;-86
2021/01/30 10:23:45;;;;;;;8.93;3.97;;;14.20;42.30;;;;;;5034491;28;20459;-86
2021/01/30 10:26:17;;;;;;;20.50;4.13;;;14.30;42.60;;;;;;5035055;28;20474;-87
2021/01/30 10:28:48;;;;;;;12.47;4.00;;;14.30;43.30;;;;;;5035018;28;20538;-86
2021/01/30 10:31:17;;;;;;;18.50;4.00;;;14.30;42.80;;;;;;5032901;28;20497;-86
2021/01/30 10:33:48;;;;;;;13.73;3.80;;;14.30;42.80;;;;;;5035218;28;20456;-86
2021/01/30 10:36:17;;;;;;;20.63;3.53;;;14.30;43.50;;;;;;5035136;28;20452;-86
2021/01/30 10:38:45;;;;;;;17.47;5.90;;;14.60;42.70;;;;;;5035275;28;20579;-87
2021/01/30 10:41:17;;;;;;;14.90;3.83;;;14.00;44.00;;;;;;5019822;28;20447;-87
2021/01/30 10:43:46;;;;;;;13.73;4.30;;;13.70;44.70;;;;;;5031613;28;20495;-86
2021/01/30 10:46:23;;;;;;;14.27;4.13;;;13.70;45.30;;;;;;5033902;28;21029;-87
2021/01/30 10:48:51;;;;;;;5.03;2.97;;;13.30;44.30;;;;;;5034834;28;20461;-88
2021/01/30 10:51:21;;;;;;;10.80;3.77;;;13.30;46.10;;;;;;5034870;28;20457;-88
2021/01/30 10:53:48;;;;;;;15.00;4.10;;;13.40;46.50;;;;;;5033484;28;20525;-88
2021/01/30 10:56:22;;;;;;;13.43;3.53;;;13.30;46.60;;;;;;5034682;28;20899;-87
2021/01/30 10:58:51;;;;;;;10.83;3.43;;;13.20;45.60;;;;;;5034344;28;20470;-85
2021/01/30 11:01:29;;;;;;;17.87;3.80;;;13.70;45.80;;;;;;5033095;28;20536;-86
2021/01/30 11:03:57;;;;;;;12.67;3.90;;;13.70;44.70;;;;;;5015094;28;20914;-86
2021/01/30 11:06:30;;;;;;;10.50;3.00;;;13.80;44.70;;;;;;5032906;28;20495;-86
2021/01/30 11:08:58;;;;;;;16.77;3.50;;;13.90;45.40;;;;;;5014921;28;20446;-86
2021/01/30 11:11:28;;;;;;;14.03;3.53;;;13.80;45.10;;;;;;5014964;28;20768;-85
2021/01/30 11:13:57;;;;;;;17.90;4.27;;;13.70;46.50;;;;;;5014351;28;20442;-85
2021/01/30 11:16:40;;;;;;;17.30;5.27;;;14.00;45.50;;;;;;5014815;28;20457;-86
2021/01/30 11:19:23;;;;;;;21.47;4.13;;;14.40;44.90;;;;;;5034116;28;20666;-87
2021/01/30 11:22:01;;;;;;;11.20;3.97;;;13.80;45.80;;;;;;5032117;28;20455;-87
2021/01/30 11:24:33;;;;;;;9.40;3.37;;;13.60;45.80;;;;;;5028434;28;20469;-87
2021/01/30 11:26:59;;;;;;;13.97;3.80;;;13.30;46.00;;;;;;5020458;28;20503;-87
2021/01/30 11:29:48;;;;;;;9.07;3.20;;;13.10;47.40;;;;;;5028347;28;20442;-87
2021/01/30 11:32:21;;;;;;;5.63;2.70;;;12.90;47.60;;;;;;5018669;28;20465;-87
2021/01/30 11:34:51;;;;;;;5.97;2.97;;;12.90;47.50;;;;;;5032797;28;20872;-88
2021/01/30 11:37:17;;;;;;;5.37;2.70;;;12.60;47.40;;;;;;5033925;28;20480;-87
2021/01/30 11:39:44;;;;;;;6.07;2.67;;;12.90;48.10;;;;;;5024711;28;20454;-87
2021/01/30 11:42:11;;;;;;;9.73;2.80;;;13.00;46.70;;;;;;5024423;28;20456;-87
2021/01/30 11:44:37;;;;;;;13.23;3.20;;;12.80;46.90;;;;;;5033938;28;20469;-87
2021/01/30 11:47:04;;;;;;;5.23;2.93;;;12.70;47.60;;;;;;5034232;28;20919;-87
2021/01/30 11:49:31;;;;;;;8.27;2.90;;;12.70;47.60;;;;;;5024547;28;20458;-87
2021/01/30 11:51:57;;;;;;;8.00;2.83;;;12.60;47.40;;;;;;5014333;28;20443;-87
2021/01/30 11:54:24;;;;;;;6.67;3.20;;;13.10;46.90;;;;;;5013971;28;21049;-87
2021/01/30 11:56:50;;;;;;;4.43;2.60;;;13.60;46.10;;;;;;5022971;28;20544;-87
2021/01/30 11:59:17;;;;;;;9.20;3.17;;;13.80;46.20;;;;;;5033630;28;20480;-88
2021/01/30 12:01:43;;;;;;;8.80;3.00;;;13.30;46.80;;;;;;5034500;28;20479;-87
2021/01/30 12:04:11;;;;;;;6.87;2.77;;;13.00;48.30;;;;;;5034358;28;20923;-87
2021/01/30 12:06:38;;;;;;;6.00;3.20;;;13.10;47.10;;;;;;5034387;28;20526;-87
2021/01/30 12:09:04;;;;;;;5.13;2.77;;;13.00;47.40;;;;;;5027743;28;20940;-87
2021/01/30 12:11:31;;;;;;;10.20;3.83;;;13.20;47.50;;;;;;5020651;28;20808;-87
2021/01/30 12:13:57;;;;;;;6.73;3.30;;;12.90;46.80;;;;;;5034220;28;20461;-87
2021/01/30 12:16:26;;;;;;;13.23;3.30;;;12.80;49.00;;;;;;5033603;28;20467;-87
2021/01/30 12:18:52;;;;;;;11.13;3.40;;;13.00;47.20;;;;;;5033074;28;20489;-87
2021/01/30 12:21:20;;;;;;;10.43;3.67;;;13.20;46.80;;;;;;5033513;28;20468;-87
2021/01/30 12:23:46;;;;;;;8.17;3.40;;;13.20;46.90;;;;;;5033029;28;20445;-87
2021/01/30 12:26:18;;;;;;;6.70;2.90;;;13.10;46.40;;;;;;5027488;28;20442;-87
2021/01/30 12:28:45;;;;;;;6.80;2.97;;;13.40;47.70;;;;;;5014523;28;20441;-87
2021/01/30 12:31:11;;;;;;;7.70;3.13;;;13.30;45.60;;;;;;5019089;28;20469;-87
2021/01/30 12:33:37;;;;;;;6.97;3.27;;;13.00;47.20;;;;;;5027938;28;20824;-88
2021/01/30 12:36:05;;;;;;;5.70;2.90;;;12.80;48.20;;;;;;5013978;28;20478;-87
2021/01/30 12:38:33;;;;;;;6.13;2.50;;;13.30;47.90;;;;;;5018530;28;20587;-88
2021/01/30 12:41:00;;;;;;;6.00;2.90;;;13.80;46.70;;;;;;5032590;28;20449;-87
2021/01/30 12:43:28;;;;;;;15.40;3.97;;;13.90;46.10;;;;;;5032736;28;20535;-87
2021/01/30 12:45:54;;;;;;;6.93;3.30;;;14.00;45.90;;;;;;5027644;28;20482;-88
2021/01/30 12:48:21;;;;;;;5.40;3.03;;;14.30;45.30;;;;;;5016730;28;20549;-87
2021/01/30 12:50:48;;;;;;;5.87;2.80;;;14.10;45.40;;;;;;5021968;28;20473;-87
2021/01/30 12:53:18;;;;;;;6.73;3.93;;;14.10;45.50;;;;;;5028734;28;20447;-86
2021/01/30 12:55:45;;;;;;;5.93;3.33;;;14.10;45.50;;;;;;5018056;28;20469;-88
2021/01/30 12:58:14;;;;;;;7.50;2.80;;;14.20;45.50;;;;;;5051124;22;20498;-86
2021/01/30 13:00:40;;;;;;;10.53;3.07;;;14.10;45.70;;;;;;5074112;28;20455;-86
2021/01/30 13:03:07;;;;;;;6.67;2.73;;;14.20;45.30;;;;;;5075643;28;20849;-86
2021/01/30 13:05:33;;;;;;;18.30;4.00;;;14.00;45.10;;;;;;5074294;28;20443;-87
2021/01/30 13:08:00;;;;;;;18.90;4.60;;;14.10;45.10;;;;;;5075409;28;20467;-87